THY5EB LTAC-LTFM
Flight info
| Callsign | THY5EB |
|---|---|
| Flight time | 0h 42m |
| Altitude | 30000 |
| Route | YAVRU1D/21R YAVRU A4 ERSEN |
| Aircraft | B789/H-SDE1E2E3FGHIJ2J3J4J5M1RWXY/LB1D1 |
Departure
| Time | 2026-05-06 19:16 |
|---|---|
| Airport | Esenboğa International Airport (LTAC) |
Arrival
| Time | 2026-05-06 19:58 |
|---|---|
| Airport | İstanbul Airport (LTFM) |
| Time | Latitude | Longitude | Altitude | Speed | Heading |
|---|---|---|---|---|---|
| 2026-05-06 18:49 | 40.11458 | 32.98911 | 3131 ft | 0 kts | 127° |
| 2026-05-06 19:01 | 40.11462 | 32.98905 | 3132 ft | 2 kts | 124° |
| 2026-05-06 19:01 | 40.11470 | 32.98886 | 3131 ft | 2 kts | 116° |
| 2026-05-06 19:02 | 40.11476 | 32.98866 | 3131 ft | 2 kts | 103° |
| 2026-05-06 19:02 | 40.11477 | 32.98845 | 3129 ft | 2 kts | 82° |
| 2026-05-06 19:02 | 40.11472 | 32.98825 | 3130 ft | 2 kts | 59° |
| 2026-05-06 19:02 | 40.11462 | 32.98808 | 3129 ft | 2 kts | 43° |
| 2026-05-06 19:03 | 40.11456 | 32.98801 | 3127 ft | 1 kts | 39° |
| 2026-05-06 19:03 | 40.11455 | 32.98800 | 3127 ft | 0 kts | 38° |
| 2026-05-06 19:07 | 40.11473 | 32.98818 | 3128 ft | 6 kts | 38° |
| 2026-05-06 19:07 | 40.11521 | 32.98869 | 3128 ft | 10 kts | 38° |
| 2026-05-06 19:07 | 40.11563 | 32.98915 | 3129 ft | 6 kts | 44° |
| 2026-05-06 19:07 | 40.11582 | 32.98940 | 3127 ft | 0 kts | 47° |
| 2026-05-06 19:08 | 40.11589 | 32.98950 | 3127 ft | 3 kts | 43° |
| 2026-05-06 19:08 | 40.11606 | 32.98955 | 3128 ft | 1 kts | 353° |
| 2026-05-06 19:08 | 40.11618 | 32.98942 | 3127 ft | 6 kts | 315° |
| 2026-05-06 19:08 | 40.11682 | 32.98890 | 3129 ft | 11 kts | 2° |
| 2026-05-06 19:09 | 40.11720 | 32.98920 | 3130 ft | 7 kts | 37° |
| 2026-05-06 19:09 | 40.11766 | 32.98965 | 3131 ft | 10 kts | 36° |
| 2026-05-06 19:09 | 40.11841 | 32.99036 | 3133 ft | 17 kts | 36° |
| 2026-05-06 19:09 | 40.11960 | 32.99149 | 3130 ft | 23 kts | 36° |
| 2026-05-06 19:10 | 40.12086 | 32.99268 | 3129 ft | 23 kts | 36° |
| 2026-05-06 19:10 | 40.12212 | 32.99388 | 3127 ft | 21 kts | 36° |
| 2026-05-06 19:10 | 40.12327 | 32.99499 | 3126 ft | 21 kts | 36° |
| 2026-05-06 19:10 | 40.12442 | 32.99609 | 3131 ft | 20 kts | 36° |
| 2026-05-06 19:11 | 40.12550 | 32.99712 | 3131 ft | 19 kts | 36° |
| 2026-05-06 19:11 | 40.12650 | 32.99808 | 3136 ft | 17 kts | 36° |
| 2026-05-06 19:11 | 40.12762 | 32.99914 | 3132 ft | 23 kts | 36° |
| 2026-05-06 19:11 | 40.12902 | 33.00048 | 3129 ft | 27 kts | 36° |
| 2026-05-06 19:12 | 40.13064 | 33.00202 | 3130 ft | 30 kts | 36° |
| 2026-05-06 19:12 | 40.13239 | 33.00368 | 3136 ft | 32 kts | 36° |
| 2026-05-06 19:12 | 40.13409 | 33.00532 | 3138 ft | 29 kts | 36° |
| 2026-05-06 19:12 | 40.13571 | 33.00686 | 3138 ft | 28 kts | 37° |
| 2026-05-06 19:13 | 40.13726 | 33.00837 | 3131 ft | 28 kts | 36° |
| 2026-05-06 19:13 | 40.13879 | 33.00979 | 3132 ft | 26 kts | 36° |
| 2026-05-06 19:13 | 40.14000 | 33.01069 | 3136 ft | 17 kts | 7° |
| 2026-05-06 19:13 | 40.14088 | 33.01017 | 3138 ft | 14 kts | 302° |
| 2026-05-06 19:14 | 40.14137 | 33.00887 | 3135 ft | 19 kts | 303° |
| 2026-05-06 19:14 | 40.14213 | 33.00747 | 3130 ft | 11 kts | 305° |
| 2026-05-06 19:14 | 40.14221 | 33.00714 | 3130 ft | 1 kts | 256° |
| 2026-05-06 19:14 | 40.14200 | 33.00676 | 3129 ft | 8 kts | 223° |
| 2026-05-06 19:15 | 40.14174 | 33.00649 | 3128 ft | 0 kts | 216° |
| 2026-05-06 19:15 | 40.14173 | 33.00648 | 3128 ft | 0 kts | 216° |
| 2026-05-06 19:15 | 40.14171 | 33.00646 | 3127 ft | 4 kts | 216° |
| 2026-05-06 19:15 | 40.14002 | 33.00485 | 3127 ft | 63 kts | 216° |
| 2026-05-06 19:16 | 40.13454 | 32.99963 | 3130 ft | 130 kts | 216° |
| 2026-05-06 19:16 | 40.12564 | 32.99117 | 3169 ft | 182 kts | 215° |
| 2026-05-06 19:16 | 40.11538 | 32.98174 | 3979 ft | 184 kts | 214° |
| 2026-05-06 19:16 | 40.10420 | 32.97150 | 4679 ft | 207 kts | 216° |
| 2026-05-06 19:17 | 40.09249 | 32.96065 | 5512 ft | 214 kts | 217° |
| 2026-05-06 19:17 | 40.07994 | 32.94811 | 5880 ft | 240 kts | 217° |
| 2026-05-06 19:17 | 40.06631 | 32.93498 | 6557 ft | 248 kts | 216° |
| 2026-05-06 19:17 | 40.05230 | 32.92185 | 7542 ft | 249 kts | 216° |
| 2026-05-06 19:18 | 40.03814 | 32.90853 | 8446 ft | 253 kts | 216° |
| 2026-05-06 19:18 | 40.02628 | 32.89174 | 9280 ft | 256 kts | 245° |
| 2026-05-06 19:18 | 40.02168 | 32.86917 | 10083 ft | 266 kts | 270° |
| 2026-05-06 19:18 | 40.02669 | 32.84502 | 10404 ft | 292 kts | 301° |
| 2026-05-06 19:19 | 40.03891 | 32.82246 | 10683 ft | 318 kts | 305° |
| 2026-05-06 19:19 | 40.05259 | 32.79830 | 10928 ft | 344 kts | 306° |
| 2026-05-06 19:19 | 40.06710 | 32.77258 | 11120 ft | 369 kts | 305° |
| 2026-05-06 19:19 | 40.08283 | 32.74417 | 11261 ft | 394 kts | 305° |
| 2026-05-06 19:20 | 40.09877 | 32.71533 | 12057 ft | 396 kts | 305° |
| 2026-05-06 19:20 | 40.11503 | 32.68610 | 12878 ft | 400 kts | 306° |
| 2026-05-06 19:20 | 40.13146 | 32.65656 | 13691 ft | 404 kts | 306° |
| 2026-05-06 19:20 | 40.14798 | 32.62673 | 14462 ft | 407 kts | 306° |
| 2026-05-06 19:21 | 40.16462 | 32.59665 | 15134 ft | 410 kts | 306° |
| 2026-05-06 19:21 | 40.18144 | 32.56624 | 15812 ft | 414 kts | 306° |
| 2026-05-06 19:21 | 40.19839 | 32.53558 | 16465 ft | 418 kts | 306° |
| 2026-05-06 19:21 | 40.21547 | 32.50466 | 17120 ft | 421 kts | 306° |
| 2026-05-06 19:22 | 40.23270 | 32.47340 | 17754 ft | 425 kts | 306° |
| 2026-05-06 19:22 | 40.24982 | 32.44233 | 18364 ft | 429 kts | 306° |
| 2026-05-06 19:22 | 40.26730 | 32.41056 | 18919 ft | 431 kts | 307° |
| 2026-05-06 19:22 | 40.28487 | 32.37863 | 19500 ft | 433 kts | 307° |
| 2026-05-06 19:23 | 40.30252 | 32.34649 | 20068 ft | 435 kts | 307° |
| 2026-05-06 19:23 | 40.32022 | 32.31422 | 20585 ft | 437 kts | 307° |
| 2026-05-06 19:23 | 40.33802 | 32.28175 | 21100 ft | 440 kts | 307° |
| 2026-05-06 19:23 | 40.35577 | 32.24935 | 21596 ft | 442 kts | 307° |
| 2026-05-06 19:24 | 40.37372 | 32.21652 | 22059 ft | 444 kts | 307° |
| 2026-05-06 19:24 | 40.39154 | 32.18392 | 22502 ft | 447 kts | 307° |
| 2026-05-06 19:24 | 40.40968 | 32.15068 | 22952 ft | 449 kts | 307° |
| 2026-05-06 19:24 | 40.42793 | 32.11722 | 23392 ft | 452 kts | 307° |
| 2026-05-06 19:25 | 40.44623 | 32.08361 | 23800 ft | 454 kts | 307° |
| 2026-05-06 19:25 | 40.46462 | 32.04981 | 24148 ft | 456 kts | 307° |
| 2026-05-06 19:25 | 40.48302 | 32.01598 | 24613 ft | 454 kts | 307° |
| 2026-05-06 19:25 | 40.50131 | 31.98227 | 25141 ft | 451 kts | 307° |
| 2026-05-06 19:26 | 40.51945 | 31.94882 | 25666 ft | 448 kts | 307° |
| 2026-05-06 19:26 | 40.53748 | 31.91554 | 26200 ft | 445 kts | 307° |
| 2026-05-06 19:26 | 40.55537 | 31.88249 | 26739 ft | 442 kts | 307° |
| 2026-05-06 19:26 | 40.57290 | 31.84947 | 27293 ft | 439 kts | 303° |
| 2026-05-06 19:27 | 40.58642 | 31.81423 | 27872 ft | 437 kts | 294° |
| 2026-05-06 19:27 | 40.59616 | 31.77642 | 28446 ft | 434 kts | 291° |
| 2026-05-06 19:27 | 40.60558 | 31.73885 | 29034 ft | 431 kts | 291° |
| 2026-05-06 19:27 | 40.61484 | 31.70157 | 29591 ft | 427 kts | 291° |
| 2026-05-06 19:28 | 40.62396 | 31.66452 | 30110 ft | 426 kts | 291° |
| 2026-05-06 19:28 | 40.64266 | 31.58890 | 30106 ft | 443 kts | 291° |
| 2026-05-06 19:29 | 40.66201 | 31.51018 | 30124 ft | 460 kts | 291° |
| 2026-05-06 19:29 | 40.68174 | 31.42967 | 30099 ft | 467 kts | 291° |
| 2026-05-06 19:30 | 40.70168 | 31.34802 | 30116 ft | 469 kts | 290° |
| 2026-05-06 19:30 | 40.71456 | 31.26365 | 30107 ft | 472 kts | 281° |
| 2026-05-06 19:31 | 40.72294 | 31.17762 | 30095 ft | 473 kts | 280° |
| 2026-05-06 19:31 | 40.73509 | 31.05072 | 29912 ft | 446 kts | 281° |
| 2026-05-06 19:32 | 40.73892 | 31.01070 | 28993 ft | 448 kts | 280° |
| 2026-05-06 19:32 | 40.74282 | 30.96972 | 28061 ft | 451 kts | 280° |
| 2026-05-06 19:32 | 40.74665 | 30.92897 | 27505 ft | 445 kts | 280° |
| 2026-05-06 19:32 | 40.75043 | 30.88867 | 27014 ft | 440 kts | 279° |
| 2026-05-06 19:33 | 40.75419 | 30.84877 | 26567 ft | 438 kts | 279° |
| 2026-05-06 19:33 | 40.75794 | 30.80889 | 26151 ft | 439 kts | 279° |
| 2026-05-06 19:33 | 40.76166 | 30.76891 | 25735 ft | 439 kts | 279° |
| 2026-05-06 19:33 | 40.76536 | 30.72893 | 25324 ft | 438 kts | 279° |
| 2026-05-06 19:34 | 40.76902 | 30.68923 | 25072 ft | 434 kts | 279° |
| 2026-05-06 19:34 | 40.77260 | 30.65043 | 25083 ft | 432 kts | 279° |
| 2026-05-06 19:34 | 40.77627 | 30.61068 | 24847 ft | 440 kts | 279° |
| 2026-05-06 19:34 | 40.77989 | 30.57096 | 24587 ft | 430 kts | 279° |
| 2026-05-06 19:35 | 40.78338 | 30.53230 | 24314 ft | 419 kts | 279° |
| 2026-05-06 19:35 | 40.78679 | 30.49465 | 24039 ft | 408 kts | 279° |
| 2026-05-06 19:35 | 40.79012 | 30.45798 | 23758 ft | 398 kts | 279° |
| 2026-05-06 19:35 | 40.79336 | 30.42208 | 23452 ft | 390 kts | 279° |
| 2026-05-06 19:36 | 40.79652 | 30.38683 | 23102 ft | 385 kts | 279° |
| 2026-05-06 19:36 | 40.79965 | 30.35188 | 22797 ft | 383 kts | 279° |
| 2026-05-06 19:36 | 40.80273 | 30.31743 | 22470 ft | 383 kts | 279° |
| 2026-05-06 19:36 | 40.80583 | 30.28248 | 22150 ft | 383 kts | 279° |
| 2026-05-06 19:37 | 40.80891 | 30.24764 | 21677 ft | 386 kts | 279° |
| 2026-05-06 19:37 | 40.81203 | 30.21227 | 21303 ft | 384 kts | 279° |
| 2026-05-06 19:37 | 40.81507 | 30.17756 | 20946 ft | 377 kts | 278° |
| 2026-05-06 19:37 | 40.81706 | 30.15489 | 20704 ft | 374 kts | 279° |
| 2026-05-06 19:38 | 40.82103 | 30.10950 | 20192 ft | 370 kts | 279° |
| 2026-05-06 19:38 | 40.82395 | 30.07587 | 19814 ft | 367 kts | 279° |
| 2026-05-06 19:38 | 40.82685 | 30.04246 | 19349 ft | 367 kts | 279° |
| 2026-05-06 19:38 | 40.82976 | 30.00892 | 18808 ft | 367 kts | 279° |
| 2026-05-06 19:39 | 40.83259 | 29.97595 | 18267 ft | 366 kts | 279° |
| 2026-05-06 19:39 | 40.83544 | 29.94269 | 17651 ft | 364 kts | 279° |
| 2026-05-06 19:39 | 40.83826 | 29.90962 | 17046 ft | 362 kts | 279° |
| 2026-05-06 19:39 | 40.84103 | 29.87708 | 16433 ft | 346 kts | 279° |
| 2026-05-06 19:40 | 40.84360 | 29.84644 | 15734 ft | 327 kts | 279° |
| 2026-05-06 19:40 | 40.84612 | 29.81687 | 15075 ft | 326 kts | 280° |
| 2026-05-06 19:40 | 40.84868 | 29.78696 | 14443 ft | 329 kts | 280° |
| 2026-05-06 19:40 | 40.85123 | 29.75681 | 13828 ft | 331 kts | 279° |
| 2026-05-06 19:41 | 40.85372 | 29.72695 | 13168 ft | 332 kts | 279° |
| 2026-05-06 19:41 | 40.85625 | 29.69660 | 12476 ft | 333 kts | 279° |
| 2026-05-06 19:41 | 40.85879 | 29.66617 | 11823 ft | 334 kts | 279° |
| 2026-05-06 19:41 | 40.86132 | 29.63571 | 11168 ft | 334 kts | 279° |
| 2026-05-06 19:42 | 40.86385 | 29.60521 | 10536 ft | 334 kts | 279° |
| 2026-05-06 19:42 | 40.86636 | 29.57476 | 9891 ft | 333 kts | 278° |
| 2026-05-06 19:42 | 40.86886 | 29.54430 | 9201 ft | 333 kts | 278° |
| 2026-05-06 19:42 | 40.87134 | 29.51396 | 8507 ft | 332 kts | 278° |
| 2026-05-06 19:43 | 40.87381 | 29.48379 | 7829 ft | 326 kts | 278° |
| 2026-05-06 19:43 | 40.87610 | 29.45532 | 7149 ft | 299 kts | 278° |
| 2026-05-06 19:43 | 40.87824 | 29.42896 | 6684 ft | 283 kts | 278° |
| 2026-05-06 19:43 | 40.88035 | 29.40324 | 6432 ft | 278 kts | 278° |
| 2026-05-06 19:44 | 40.88235 | 29.37853 | 6330 ft | 269 kts | 278° |
| 2026-05-06 19:44 | 40.88431 | 29.35409 | 6367 ft | 268 kts | 278° |
| 2026-05-06 19:44 | 40.88629 | 29.32953 | 6404 ft | 270 kts | 278° |
| 2026-05-06 19:44 | 40.88828 | 29.30481 | 6427 ft | 270 kts | 278° |
| 2026-05-06 19:45 | 40.89024 | 29.28017 | 6441 ft | 270 kts | 278° |
| 2026-05-06 19:45 | 40.89217 | 29.25584 | 6414 ft | 257 kts | 278° |
| 2026-05-06 19:45 | 40.89395 | 29.23314 | 6186 ft | 241 kts | 279° |
| 2026-05-06 19:45 | 40.89568 | 29.21146 | 5977 ft | 235 kts | 279° |
| 2026-05-06 19:46 | 40.89738 | 29.19017 | 5761 ft | 232 kts | 279° |
| 2026-05-06 19:46 | 40.89902 | 29.16946 | 5738 ft | 230 kts | 278° |
| 2026-05-06 19:46 | 40.90069 | 29.14834 | 5709 ft | 231 kts | 278° |
| 2026-05-06 19:46 | 40.90235 | 29.12719 | 5686 ft | 231 kts | 278° |
| 2026-05-06 19:47 | 40.90400 | 29.10606 | 5652 ft | 232 kts | 278° |
| 2026-05-06 19:47 | 40.90566 | 29.08488 | 5626 ft | 232 kts | 278° |
| 2026-05-06 19:47 | 40.90731 | 29.06371 | 5598 ft | 231 kts | 278° |
| 2026-05-06 19:47 | 40.90895 | 29.04256 | 5573 ft | 231 kts | 278° |
| 2026-05-06 19:48 | 40.91060 | 29.02139 | 5551 ft | 232 kts | 278° |
| 2026-05-06 19:48 | 40.91358 | 29.00066 | 5515 ft | 229 kts | 291° |
| 2026-05-06 19:48 | 40.91880 | 28.98063 | 5329 ft | 231 kts | 290° |
| 2026-05-06 19:48 | 40.92372 | 28.96083 | 5105 ft | 224 kts | 290° |
| 2026-05-06 19:49 | 40.92852 | 28.94143 | 4898 ft | 220 kts | 290° |
| 2026-05-06 19:49 | 40.93324 | 28.92254 | 4655 ft | 219 kts | 289° |
| 2026-05-06 19:49 | 40.93798 | 28.90352 | 4414 ft | 214 kts | 289° |
| 2026-05-06 19:49 | 40.94261 | 28.88492 | 4188 ft | 212 kts | 289° |
| 2026-05-06 19:50 | 40.94720 | 28.86649 | 3984 ft | 208 kts | 289° |
| 2026-05-06 19:50 | 40.95170 | 28.84838 | 3997 ft | 208 kts | 289° |
| 2026-05-06 19:50 | 40.95625 | 28.83007 | 3997 ft | 210 kts | 289° |
| 2026-05-06 19:50 | 40.96079 | 28.81176 | 4000 ft | 210 kts | 289° |
| 2026-05-06 19:51 | 40.96535 | 28.79338 | 4004 ft | 211 kts | 289° |
| 2026-05-06 19:51 | 40.97133 | 28.77627 | 3967 ft | 199 kts | 308° |
| 2026-05-06 19:51 | 40.98244 | 28.76679 | 3975 ft | 195 kts | 341° |
| 2026-05-06 19:51 | 40.99537 | 28.76295 | 3981 ft | 187 kts | 350° |
| 2026-05-06 19:52 | 41.00829 | 28.76222 | 3986 ft | 185 kts | 355° |
| 2026-05-06 19:52 | 41.02097 | 28.76184 | 3990 ft | 179 kts | 356° |
| 2026-05-06 19:52 | 41.03355 | 28.76157 | 3988 ft | 182 kts | 356° |
| 2026-05-06 19:52 | 41.04625 | 28.76129 | 3988 ft | 183 kts | 356° |
| 2026-05-06 19:53 | 41.05901 | 28.76102 | 3991 ft | 184 kts | 356° |
| 2026-05-06 19:53 | 41.07180 | 28.76075 | 3982 ft | 184 kts | 356° |
| 2026-05-06 19:53 | 41.08037 | 28.76055 | 3864 ft | 188 kts | 356° |
| 2026-05-06 19:53 | 41.09750 | 28.76020 | 3536 ft | 177 kts | 356° |
| 2026-05-06 19:54 | 41.10956 | 28.75995 | 3305 ft | 175 kts | 356° |
| 2026-05-06 19:54 | 41.12165 | 28.75968 | 3075 ft | 173 kts | 356° |
| 2026-05-06 19:54 | 41.13378 | 28.75942 | 2836 ft | 174 kts | 357° |
| 2026-05-06 19:54 | 41.14521 | 28.75919 | 2607 ft | 156 kts | 357° |
| 2026-05-06 19:55 | 41.15593 | 28.75898 | 2408 ft | 153 kts | 357° |
| 2026-05-06 19:55 | 41.16294 | 28.75883 | 2277 ft | 152 kts | 358° |
| 2026-05-06 19:55 | 41.17358 | 28.75849 | 2067 ft | 154 kts | 356° |
| 2026-05-06 19:55 | 41.18418 | 28.75796 | 1911 ft | 153 kts | 359° |
| 2026-05-06 19:56 | 41.19495 | 28.75789 | 1728 ft | 155 kts | 359° |
| 2026-05-06 19:56 | 41.20905 | 28.75764 | 1374 ft | 151 kts | 359° |
| 2026-05-06 19:56 | 41.21598 | 28.75728 | 1248 ft | 147 kts | 356° |
| 2026-05-06 19:56 | 41.22635 | 28.75697 | 1031 ft | 148 kts | 2° |
| 2026-05-06 19:57 | 41.23648 | 28.75698 | 885 ft | 150 kts | 2° |
| 2026-05-06 19:57 | 41.24692 | 28.75681 | 689 ft | 150 kts | 2° |
| 2026-05-06 19:57 | 41.25740 | 28.75674 | 426 ft | 149 kts | 3° |
| 2026-05-06 19:57 | 41.26737 | 28.75665 | 314 ft | 126 kts | 356° |
| 2026-05-06 19:58 | 41.27422 | 28.75652 | 301 ft | 74 kts | 359° |
| 2026-05-06 19:58 | 41.27821 | 28.75646 | 282 ft | 50 kts | 359° |
| 2026-05-06 19:58 | 41.28052 | 28.75628 | 268 ft | 24 kts | 353° |
| 2026-05-06 19:58 | 41.28218 | 28.75621 | 264 ft | 24 kts | 353° |
| 2026-05-06 19:59 | 41.28357 | 28.75547 | 258 ft | 22 kts | 328° |
| 2026-05-06 19:59 | 41.28402 | 28.75510 | 257 ft | 1 kts | 327° |
| 2026-05-06 19:59 | 41.28421 | 28.75491 | 256 ft | 7 kts | 318° |
| 2026-05-06 19:59 | 41.28440 | 28.75404 | 256 ft | 13 kts | 254° |
| 2026-05-06 20:00 | 41.28368 | 28.75356 | 258 ft | 13 kts | 179° |
| 2026-05-06 20:00 | 41.28280 | 28.75355 | 260 ft | 12 kts | 178° |
| 2026-05-06 20:00 | 41.28204 | 28.75356 | 262 ft | 10 kts | 180° |
| 2026-05-06 20:00 | 41.28133 | 28.75356 | 264 ft | 12 kts | 180° |
| 2026-05-06 20:01 | 41.28041 | 28.75358 | 268 ft | 14 kts | 179° |
| 2026-05-06 20:01 | 41.27940 | 28.75360 | 274 ft | 15 kts | 179° |
| 2026-05-06 20:01 | 41.27836 | 28.75362 | 280 ft | 15 kts | 179° |
| 2026-05-06 20:01 | 41.27731 | 28.75361 | 287 ft | 15 kts | 179° |
| 2026-05-06 20:02 | 41.27626 | 28.75364 | 298 ft | 16 kts | 179° |
| 2026-05-06 20:02 | 41.27510 | 28.75365 | 302 ft | 18 kts | 180° |
| 2026-05-06 20:02 | 41.27380 | 28.75366 | 305 ft | 19 kts | 179° |
| 2026-05-06 20:02 | 41.27240 | 28.75367 | 306 ft | 20 kts | 179° |
| 2026-05-06 20:03 | 41.27116 | 28.75369 | 308 ft | 15 kts | 180° |
| 2026-05-06 20:03 | 41.27070 | 28.75333 | 310 ft | 7 kts | 249° |
| 2026-05-06 20:03 | 41.27057 | 28.75268 | 309 ft | 3 kts | 234° |
| 2026-05-06 20:03 | 41.27037 | 28.75256 | 311 ft | 4 kts | 189° |
| 2026-05-06 20:04 | 41.26988 | 28.75254 | 311 ft | 11 kts | 181° |
| 2026-05-06 20:04 | 41.26915 | 28.75255 | 312 ft | 10 kts | 178° |
| 2026-05-06 20:04 | 41.26827 | 28.75257 | 313 ft | 13 kts | 180° |
| 2026-05-06 20:04 | 41.26740 | 28.75259 | 315 ft | 12 kts | 179° |
| 2026-05-06 20:05 | 41.26662 | 28.75259 | 316 ft | 11 kts | 180° |
| 2026-05-06 20:05 | 41.26590 | 28.75260 | 315 ft | 10 kts | 179° |
| 2026-05-06 20:05 | 41.26525 | 28.75261 | 317 ft | 9 kts | 179° |
| 2026-05-06 20:05 | 41.26462 | 28.75262 | 317 ft | 11 kts | 179° |
| 2026-05-06 20:06 | 41.26309 | 28.75266 | 319 ft | 16 kts | 179° |
| 2026-05-06 20:06 | 41.26199 | 28.75269 | 319 ft | 16 kts | 179° |
| 2026-05-06 20:06 | 41.26089 | 28.75272 | 318 ft | 17 kts | 179° |
| 2026-05-06 20:06 | 41.25982 | 28.75273 | 319 ft | 10 kts | 180° |
| 2026-05-06 20:07 | 41.25939 | 28.75232 | 319 ft | 7 kts | 250° |
| 2026-05-06 20:07 | 41.25931 | 28.75146 | 319 ft | 12 kts | 278° |
| 2026-05-06 20:07 | 41.25981 | 28.75076 | 319 ft | 11 kts | 338° |
| 2026-05-06 20:07 | 41.26052 | 28.75043 | 319 ft | 11 kts | 342° |
| 2026-05-06 20:08 | 41.26125 | 28.75010 | 319 ft | 10 kts | 340° |
| 2026-05-06 20:08 | 41.26191 | 28.74980 | 319 ft | 7 kts | 339° |
| 2026-05-06 20:08 | 41.26211 | 28.74958 | 319 ft | 1 kts | 289° |
| 2026-05-06 20:08 | 41.26212 | 28.74941 | 319 ft | 3 kts | 278° |
| 2026-05-06 20:09 | 41.26210 | 28.74920 | 319 ft | 2 kts | 254° |
| 2026-05-06 20:09 | 41.26202 | 28.74886 | 319 ft | 5 kts | 251° |
| 2026-05-06 20:09 | 41.26196 | 28.74861 | 319 ft | 1 kts | 251° |
| 2026-05-06 20:09 | 41.26195 | 28.74858 | 319 ft | 0 kts | 251° |